createdAt,value
2018-12-01T00:39:02.851Z,18.90
2018-12-01T01:18:22.191Z,18.90
2018-12-01T01:31:29.303Z,18.90
2018-12-01T01:44:36.414Z,18.90
2018-12-01T01:57:43.609Z,18.90
2018-12-01T02:10:50.785Z,19.00
2018-12-01T02:23:57.932Z,18.90
2018-12-01T02:37:21.907Z,18.90
2018-12-01T02:50:44.738Z,18.90
2018-12-01T03:04:07.499Z,18.90
2018-12-01T03:17:30.379Z,18.90
2018-12-01T03:30:53.177Z,18.90
2018-12-01T03:57:17.663Z,18.90
2018-12-01T04:10:24.772Z,18.90
2018-12-01T04:23:31.909Z,18.90
2018-12-01T04:36:39.094Z,18.90
2018-12-01T04:49:46.258Z,18.90
2018-12-01T05:02:53.430Z,18.90
2018-12-01T05:16:17.386Z,19.00
2018-12-01T05:29:40.223Z,18.90
2018-12-01T05:43:03.031Z,18.90
2018-12-01T06:09:27.542Z,18.90
2018-12-01T06:35:40.358Z,18.90
2018-12-01T06:48:47.536Z,19.00
2018-12-01T07:01:54.659Z,18.90
2018-12-01T07:15:01.784Z,18.90
2018-12-01T07:28:08.979Z,18.90
2018-12-01T07:41:17.181Z,18.90
2018-12-01T07:54:40.135Z,19.00
2018-12-01T08:08:02.918Z,19.10
2018-12-01T08:21:25.750Z,19.10
2018-12-01T08:34:48.572Z,19.10
2018-12-01T08:48:11.471Z,19.10
2018-12-01T09:01:34.228Z,19.30
2018-12-01T09:14:57.063Z,19.40
2018-12-01T09:28:19.859Z,19.40
2018-12-01T09:41:42.644Z,19.40
2018-12-01T09:55:05.464Z,19.50
2018-12-01T10:08:28.288Z,19.50
2018-12-01T10:21:51.090Z,19.50
2018-12-01T10:35:13.940Z,19.30
2018-12-01T10:48:36.734Z,19.40
2018-12-01T11:01:59.545Z,19.50
2018-12-01T11:15:22.358Z,19.60
2018-12-01T11:28:45.236Z,19.50
2018-12-01T11:42:08.049Z,19.60
2018-12-01T11:55:30.815Z,19.80
2018-12-01T12:08:53.874Z,19.80
2018-12-01T12:22:16.491Z,19.80
2018-12-01T12:35:39.338Z,19.90
2018-12-01T12:49:02.080Z,19.90
2018-12-01T13:02:24.876Z,19.80
2018-12-01T13:15:47.691Z,19.70
2018-12-01T13:29:10.515Z,19.60
2018-12-01T13:42:33.364Z,19.60
2018-12-01T13:55:56.152Z,19.60
2018-12-01T14:09:18.975Z,19.60
2018-12-01T14:22:41.780Z,19.50
2018-12-01T14:36:04.687Z,19.50
2018-12-01T14:49:27.449Z,19.50
2018-12-01T15:02:50.273Z,19.40
2018-12-01T15:16:13.028Z,19.40
2018-12-01T15:29:36.007Z,19.40
2018-12-01T15:42:58.703Z,19.40
2018-12-01T15:56:21.497Z,19.40
2018-12-01T16:09:44.481Z,19.40
2018-12-01T16:23:07.143Z,19.40
2018-12-01T16:36:29.951Z,19.40
2018-12-01T16:49:52.776Z,19.30
2018-12-01T17:03:15.579Z,19.30
2018-12-01T17:16:38.391Z,19.30
2018-12-01T17:30:01.248Z,19.30
2018-12-01T17:43:24.050Z,19.30
2018-12-01T17:56:46.860Z,19.30
2018-12-01T18:10:09.670Z,19.30
2018-12-01T18:23:32.480Z,19.30
2018-12-01T18:36:55.316Z,19.30
2018-12-01T19:03:19.787Z,19.20
2018-12-01T19:16:26.920Z,19.20
2018-12-01T19:29:34.060Z,19.20
2018-12-01T19:42:41.234Z,19.20
2018-12-01T19:55:48.425Z,19.20
2018-12-01T20:08:55.696Z,19.20
2018-12-01T20:22:19.499Z,19.20
2018-12-01T20:35:42.365Z,19.20
2018-12-01T20:49:05.137Z,19.20
2018-12-01T21:02:27.959Z,19.20
2018-12-01T21:15:50.812Z,19.20
2018-12-01T21:29:13.653Z,18.70
2018-12-01T21:42:36.496Z,18.90
2018-12-01T21:55:59.264Z,19.00
2018-12-01T22:22:57.759Z,19.10
2018-12-01T22:36:05.886Z,19.10
2018-12-01T23:02:17.430Z,19.10
2018-12-01T23:15:32.343Z,19.20
2018-12-01T23:28:49.797Z,19.10
2018-12-01T23:42:12.608Z,19.20
2018-12-01T23:55:35.407Z,19.20
